createdAt,value
2022-11-17T00:00:26.329Z,24.85
2022-11-17T00:02:54.471Z,22.73
2022-11-17T00:05:22.567Z,23.05
2022-11-17T00:07:51.021Z,20.40
2022-11-17T00:10:19.275Z,22.10
2022-11-17T00:13:06.465Z,21.10
2022-11-17T00:15:34.581Z,19.17
2022-11-17T00:18:21.210Z,21.40
2022-11-17T00:21:06.769Z,22.65
2022-11-17T00:23:48.122Z,24.42
2022-11-17T00:26:17.159Z,24.20
2022-11-17T00:28:46.468Z,26.35
2022-11-17T00:31:33.211Z,17.85
2022-11-17T00:34:07.916Z,21.33
2022-11-17T00:36:40.581Z,26.45
2022-11-17T00:39:09.252Z,23.27
2022-11-17T00:41:37.426Z,21.20
2022-11-17T00:44:07.679Z,28.02
2022-11-17T00:46:37.139Z,23.10
2022-11-17T00:49:05.663Z,28.30
2022-11-17T00:51:34.088Z,31.17
2022-11-17T00:54:02.605Z,28.98
2022-11-17T00:56:30.923Z,23.60
2022-11-17T00:58:59.158Z,30.73
2022-11-17T01:01:30.083Z,23.98
2022-11-17T01:04:04.034Z,26.70
2022-11-17T01:06:33.644Z,27.15
2022-11-17T01:09:02.086Z,25.50
2022-11-17T01:11:31.332Z,19.40
2022-11-17T01:14:01.519Z,26.63
2022-11-17T01:16:32.493Z,23.60
2022-11-17T01:19:02.501Z,23.50
2022-11-17T01:21:31.711Z,26.80
2022-11-17T01:24:01.817Z,22.25
2022-11-17T01:26:32.022Z,23.08
2022-11-17T01:29:01.056Z,20.65
2022-11-17T01:31:32.200Z,28.80
2022-11-17T01:34:00.249Z,24.10
2022-11-17T01:36:31.140Z,28.67
2022-11-17T01:38:59.112Z,21.52
2022-11-17T01:41:29.277Z,23.65
2022-11-17T01:43:58.940Z,24.33
2022-11-17T01:46:34.568Z,19.85
2022-11-17T01:49:12.695Z,25.00
2022-11-17T01:51:43.836Z,24.15
2022-11-17T01:54:13.554Z,22.25
2022-11-17T01:56:45.068Z,19.60
2022-11-17T01:59:20.585Z,25.38
2022-11-17T02:01:56.657Z,27.20
2022-11-17T02:04:26.936Z,21.90
2022-11-17T02:07:00.772Z,20.70
2022-11-17T02:09:29.256Z,19.83
2022-11-17T02:11:59.627Z,26.90
2022-11-17T02:14:27.586Z,20.90
2022-11-17T02:16:59.941Z,21.23
2022-11-17T02:19:34.916Z,21.27
2022-11-17T02:22:27.549Z,20.52
2022-11-17T02:25:13.045Z,22.67
2022-11-17T02:28:01.798Z,18.92
2022-11-17T02:30:35.550Z,21.48
2022-11-17T02:33:07.888Z,19.60
2022-11-17T02:35:41.857Z,17.80
2022-11-17T02:38:21.665Z,22.73
2022-11-17T02:40:53.174Z,21.90
2022-11-17T02:43:42.730Z,25.63
2022-11-17T02:46:15.134Z,23.15
2022-11-17T02:48:48.980Z,22.10
2022-11-17T02:51:20.909Z,23.88
2022-11-17T02:53:50.415Z,22.90
2022-11-17T02:56:18.364Z,24.75
2022-11-17T02:58:50.182Z,25.98
2022-11-17T03:01:33.623Z,26.10
2022-11-17T03:04:28.486Z,29.17
2022-11-17T03:07:09.296Z,30.65
2022-11-17T03:09:47.177Z,29.90
2022-11-17T03:12:23.143Z,28.58
2022-11-17T03:15:01.250Z,29.73
2022-11-17T03:17:33.620Z,31.02
2022-11-17T03:20:09.308Z,28.80
2022-11-17T03:22:44.764Z,25.75
2022-11-17T03:25:17.466Z,27.25
2022-11-17T03:27:49.089Z,29.40
2022-11-17T03:30:20.757Z,30.92
2022-11-17T03:32:53.908Z,32.63
2022-11-17T03:35:25.196Z,32.75
2022-11-17T03:37:56.555Z,32.38
2022-11-17T03:40:27.996Z,27.48
2022-11-17T03:42:59.978Z,30.30
2022-11-17T03:45:31.273Z,31.55
2022-11-17T03:48:04.395Z,29.35
2022-11-17T03:50:35.989Z,29.17
2022-11-17T03:53:06.006Z,27.45
2022-11-17T03:55:39.379Z,26.63
2022-11-17T03:58:12.266Z,19.88
2022-11-17T04:00:42.823Z,29.52
2022-11-17T04:03:10.760Z,22.83
2022-11-17T04:05:38.679Z,18.13
2022-11-17T04:08:06.831Z,17.17
2022-11-17T04:10:54.734Z,18.35
2022-11-17T04:13:40.040Z,23.33
2022-11-17T04:16:09.721Z,17.25
2022-11-17T04:18:37.670Z,20.88
2022-11-17T04:21:05.925Z,17.48
2022-11-17T04:23:34.114Z,18.50
2022-11-17T04:26:19.728Z,19.90
2022-11-17T04:28:49.543Z,15.27
2022-11-17T04:31:20.372Z,17.70
2022-11-17T04:33:50.146Z,18.23
2022-11-17T04:36:20.009Z,16.55
2022-11-17T04:38:49.721Z,19.08
2022-11-17T04:41:36.454Z,22.05
2022-11-17T04:44:05.783Z,16.05
2022-11-17T04:46:36.572Z,27.45
2022-11-17T04:49:05.756Z,19.73
2022-11-17T04:51:34.216Z,27.25
2022-11-17T04:54:03.280Z,21.98
2022-11-17T04:56:31.318Z,22.15
2022-11-17T04:58:59.333Z,17.90
2022-11-17T05:01:28.474Z,19.83
2022-11-17T05:03:59.688Z,17.90
2022-11-17T05:06:29.524Z,16.15
2022-11-17T05:08:58.075Z,16.38
2022-11-17T05:11:45.465Z,20.67
2022-11-17T05:14:14.809Z,17.58
2022-11-17T05:17:04.654Z,17.88
2022-11-17T05:19:39.570Z,16.67
2022-11-17T05:22:29.411Z,16.60
2022-11-17T05:24:56.852Z,16.52
2022-11-17T05:27:25.116Z,33.03
2022-11-17T05:29:53.165Z,18.95
2022-11-17T05:32:21.345Z,16.63
2022-11-17T05:34:50.684Z,23.65
2022-11-17T05:37:18.614Z,15.30
2022-11-17T05:39:46.530Z,16.55
2022-11-17T05:42:14.496Z,18.17
2022-11-17T05:44:42.482Z,18.13
2022-11-17T05:47:10.405Z,21.52
2022-11-17T05:49:38.356Z,19.95
2022-11-17T05:52:07.729Z,19.52
2022-11-17T05:54:35.665Z,19.05
2022-11-17T05:57:07.202Z,19.45
2022-11-17T05:59:40.345Z,27.10
2022-11-17T06:02:10.716Z,22.23
2022-11-17T06:04:39.922Z,25.48
2022-11-17T06:07:09.351Z,28.55
2022-11-17T06:09:41.164Z,26.95
2022-11-17T06:12:09.248Z,22.05
2022-11-17T06:14:39.117Z,16.63
2022-11-17T06:17:16.292Z,20.55
2022-11-17T06:19:50.279Z,104.38
2022-11-17T06:22:19.597Z,20.38
2022-11-17T06:24:47.775Z,19.58
2022-11-17T06:27:17.295Z,19.35
2022-11-17T06:29:46.871Z,18.75
2022-11-17T06:32:15.929Z,18.40
2022-11-17T06:34:49.128Z,20.98
2022-11-17T06:37:21.544Z,16.10
2022-11-17T06:39:49.493Z,20.95
2022-11-17T06:42:17.517Z,18.58
2022-11-17T06:44:45.428Z,19.38
2022-11-17T06:47:13.391Z,19.70
2022-11-17T06:49:41.413Z,22.80
2022-11-17T06:52:11.033Z,21.42
2022-11-17T06:54:40.309Z,22.67
2022-11-17T06:57:08.237Z,20.02
2022-11-17T06:59:36.164Z,31.25
2022-11-17T07:02:04.095Z,43.72
2022-11-17T07:04:32.054Z,36.85
2022-11-17T07:07:00.059Z,24.15
2022-11-17T07:09:27.971Z,21.55
2022-11-17T07:11:57.216Z,19.00
2022-11-17T07:14:25.132Z,22.55
2022-11-17T07:16:53.026Z,20.15
2022-11-17T07:19:20.948Z,20.90
2022-11-17T07:21:48.854Z,19.15
2022-11-17T07:24:16.774Z,18.70
2022-11-17T07:26:44.681Z,19.73
2022-11-17T07:29:13.951Z,22.08
2022-11-17T07:31:41.941Z,19.50
2022-11-17T07:34:10.132Z,21.23
2022-11-17T07:36:38.093Z,22.30
2022-11-17T07:39:06.583Z,17.38
2022-11-17T07:41:34.493Z,22.17
2022-11-17T07:44:02.490Z,22.48
2022-11-17T07:46:32.770Z,18.48
2022-11-17T07:49:00.753Z,19.42
2022-11-17T07:51:28.645Z,21.98
2022-11-17T07:53:56.597Z,20.35
2022-11-17T07:56:24.539Z,21.33
2022-11-17T07:58:54.816Z,23.00
2022-11-17T08:01:22.974Z,25.92
2022-11-17T08:03:52.381Z,21.98
2022-11-17T08:06:21.004Z,18.13
2022-11-17T08:08:49.702Z,18.70
2022-11-17T08:11:19.242Z,18.23
2022-11-17T08:13:47.965Z,19.00
2022-11-17T08:16:15.911Z,19.65
2022-11-17T08:18:50.553Z,21.70
2022-11-17T08:21:22.536Z,21.33
2022-11-17T08:23:52.083Z,20.23
2022-11-17T08:26:21.426Z,16.52
2022-11-17T08:28:53.692Z,14.77
2022-11-17T08:31:25.975Z,22.70
2022-11-17T08:33:53.957Z,16.77
2022-11-17T08:36:23.302Z,16.92
2022-11-17T08:38:51.250Z,16.27
2022-11-17T08:41:19.777Z,18.42
2022-11-17T08:43:47.818Z,16.13
2022-11-17T08:46:15.960Z,14.10
2022-11-17T08:48:43.974Z,18.48
2022-11-17T08:51:14.908Z,17.20
2022-11-17T08:53:44.327Z,15.40
2022-11-17T08:56:13.931Z,15.90
2022-11-17T08:58:42.893Z,14.57
2022-11-17T09:01:11.555Z,14.07
2022-11-17T09:03:39.797Z,19.95
2022-11-17T09:06:08.088Z,19.50
2022-11-17T09:08:45.600Z,13.77
2022-11-17T09:11:16.578Z,15.02
2022-11-17T09:13:45.692Z,20.25
2022-11-17T09:16:14.168Z,18.45
2022-11-17T09:18:42.519Z,13.38
2022-11-17T09:21:12.228Z,16.58
2022-11-17T09:23:40.453Z,14.88
2022-11-17T09:26:10.667Z,13.52
2022-11-17T09:28:40.407Z,17.13
2022-11-17T09:31:09.593Z,13.38
2022-11-17T09:33:38.677Z,14.05
2022-11-17T09:36:08.278Z,18.80
2022-11-17T09:38:36.779Z,14.48
2022-11-17T09:41:26.190Z,15.45
2022-11-17T09:44:06.609Z,14.57
2022-11-17T09:46:47.213Z,13.60
2022-11-17T09:49:21.664Z,14.90
2022-11-17T09:51:51.785Z,14.60
2022-11-17T09:54:27.364Z,14.23
2022-11-17T09:56:57.739Z,15.85
2022-11-17T09:59:30.947Z,15.25
2022-11-17T10:01:59.356Z,13.85
2022-11-17T10:04:30.333Z,11.70
2022-11-17T10:06:59.508Z,10.55
2022-11-17T10:09:36.241Z,15.05
2022-11-17T10:12:16.310Z,17.42
2022-11-17T10:14:46.708Z,14.65
2022-11-17T10:17:14.694Z,14.10
2022-11-17T10:19:43.893Z,16.35
2022-11-17T10:22:24.155Z,12.45
2022-11-17T10:24:55.378Z,15.95
2022-11-17T10:27:26.937Z,13.48
2022-11-17T10:30:05.089Z,11.07
2022-11-17T10:32:36.426Z,13.20
2022-11-17T10:35:15.840Z,13.48
2022-11-17T10:37:52.097Z,11.32
2022-11-17T10:40:25.326Z,20.52
2022-11-17T10:43:04.873Z,9.45
2022-11-17T10:45:34.863Z,10.50
2022-11-17T10:48:11.620Z,11.65
2022-11-17T10:50:51.878Z,13.98
2022-11-17T10:53:26.532Z,10.88
2022-11-17T10:55:57.733Z,8.82
2022-11-17T10:58:27.658Z,12.02
2022-11-17T11:00:58.825Z,14.57
2022-11-17T11:03:30.502Z,13.95
2022-11-17T11:06:22.380Z,12.98
2022-11-17T11:08:55.059Z,12.02
2022-11-17T11:11:37.856Z,10.80
2022-11-17T11:14:14.389Z,12.35
2022-11-17T11:16:48.142Z,9.55
2022-11-17T11:19:18.416Z,14.13
2022-11-17T11:22:09.826Z,12.82
2022-11-17T11:24:45.959Z,13.65
2022-11-17T11:27:29.361Z,11.38
2022-11-17T11:30:03.543Z,9.45
2022-11-17T11:32:41.175Z,9.95
2022-11-17T11:35:33.853Z,11.93
2022-11-17T11:38:15.989Z,11.40
2022-11-17T11:40:48.860Z,12.48
2022-11-17T11:43:27.101Z,8.75
2022-11-17T11:46:04.702Z,10.40
2022-11-17T11:48:35.017Z,12.25
2022-11-17T11:51:05.879Z,9.27
2022-11-17T11:53:42.217Z,26.38
2022-11-17T11:56:15.825Z,8.10
2022-11-17T11:58:48.819Z,17.30
2022-11-17T12:01:18.829Z,10.55
2022-11-17T12:03:55.578Z,16.23
2022-11-17T12:06:42.857Z,7.07
2022-11-17T12:09:25.198Z,8.00
2022-11-17T12:12:03.781Z,7.82
2022-11-17T12:14:33.878Z,12.15
2022-11-17T12:17:05.855Z,10.13
2022-11-17T12:19:57.095Z,10.32
2022-11-17T12:22:51.120Z,9.18
2022-11-17T12:25:20.787Z,11.30
2022-11-17T12:27:50.696Z,8.05
2022-11-17T12:30:53.659Z,5.72
2022-11-17T12:33:22.528Z,3.58
2022-11-17T12:36:31.552Z,4.57
2022-11-17T12:39:01.987Z,3.78
2022-11-17T12:42:04.810Z,4.75
2022-11-17T12:45:13.303Z,4.85
2022-11-17T12:47:44.167Z,8.55
2022-11-17T12:50:47.600Z,4.75
2022-11-17T12:53:31.144Z,3.83
2022-11-17T12:56:21.919Z,2.10
2022-11-17T12:59:16.685Z,2.25
2022-11-17T13:01:52.700Z,3.90
2022-11-17T13:04:29.600Z,7.72
2022-11-17T13:07:02.723Z,3.10
2022-11-17T13:09:33.867Z,4.10
2022-11-17T13:12:04.136Z,3.90
2022-11-17T13:14:32.735Z,2.72
2022-11-17T13:17:01.443Z,3.00
2022-11-17T13:19:36.207Z,2.75
2022-11-17T13:22:07.274Z,4.80
2022-11-17T13:24:38.540Z,3.13
2022-11-17T13:27:08.448Z,2.28
2022-11-17T13:29:36.722Z,3.70
2022-11-17T13:32:20.124Z,4.45
2022-11-17T13:34:50.029Z,3.17
2022-11-17T13:37:20.340Z,4.05
2022-11-17T13:40:01.108Z,1.40
2022-11-17T13:42:33.271Z,1.70
2022-11-17T13:45:03.966Z,2.90
2022-11-17T13:47:46.985Z,2.58
2022-11-17T13:50:39.901Z,2.30
2022-11-17T13:53:24.389Z,1.83
2022-11-17T13:55:54.327Z,3.05
2022-11-17T13:58:30.070Z,2.85
2022-11-17T14:00:59.896Z,4.80
2022-11-17T14:03:39.864Z,1.35
2022-11-17T14:06:10.422Z,2.33
2022-11-17T14:08:40.200Z,2.30
2022-11-17T14:11:16.449Z,3.38
2022-11-17T14:13:46.106Z,4.63
2022-11-17T14:16:35.664Z,1.88
2022-11-17T14:19:06.225Z,20.63
2022-11-17T14:21:34.194Z,16.58
2022-11-17T14:24:07.841Z,149.52
2022-11-17T14:26:42.620Z,75.28
2022-11-17T14:29:12.592Z,15.30
2022-11-17T14:31:40.625Z,10.02
2022-11-17T14:34:08.594Z,8.60
2022-11-17T14:36:37.507Z,13.77
2022-11-17T14:39:12.031Z,10.18
2022-11-17T14:41:41.937Z,3.53
2022-11-17T14:44:10.294Z,7.25
2022-11-17T14:46:38.599Z,1.92
2022-11-17T14:49:07.293Z,3.65
2022-11-17T14:51:35.764Z,3.63
2022-11-17T14:54:04.051Z,3.55
2022-11-17T14:56:32.223Z,3.78
2022-11-17T14:59:02.199Z,9.23
2022-11-17T15:01:32.626Z,3.80
2022-11-17T15:04:20.739Z,3.03
2022-11-17T15:06:50.780Z,4.40
2022-11-17T15:09:20.492Z,3.10
2022-11-17T15:11:48.774Z,3.92
2022-11-17T15:14:18.599Z,4.07
2022-11-17T15:16:46.825Z,6.55
2022-11-17T15:19:15.092Z,3.80
2022-11-17T15:21:43.161Z,2.92
2022-11-17T15:24:11.062Z,2.50
2022-11-17T15:26:39.240Z,3.53
2022-11-17T15:29:07.234Z,6.97
2022-11-17T15:31:36.687Z,3.72
2022-11-17T15:34:04.663Z,1.33
2022-11-17T15:36:32.912Z,2.38
2022-11-17T15:39:00.847Z,2.63
2022-11-17T15:41:32.822Z,2.25
2022-11-17T15:44:01.202Z,2.72
2022-11-17T15:46:29.269Z,4.70
2022-11-17T15:48:58.626Z,7.50
2022-11-17T15:51:28.338Z,3.83
2022-11-17T15:53:59.062Z,9.18
2022-11-17T15:56:28.304Z,2.50
2022-11-17T15:58:57.812Z,4.55
2022-11-17T16:01:29.847Z,1.80
2022-11-17T16:04:03.622Z,8.18
2022-11-17T16:06:33.449Z,7.40
2022-11-17T16:09:01.648Z,5.32
2022-11-17T16:11:29.711Z,2.42
2022-11-17T16:13:59.138Z,3.08
2022-11-17T16:16:29.160Z,3.08
2022-11-17T16:18:57.473Z,3.63
2022-11-17T16:21:26.989Z,2.00
2022-11-17T16:23:56.843Z,5.13
2022-11-17T16:26:26.450Z,1.70
2022-11-17T16:28:57.611Z,2.15
2022-11-17T16:31:28.348Z,1.73
2022-11-17T16:33:57.989Z,1.08
2022-11-17T16:36:35.853Z,2.13
2022-11-17T16:39:06.138Z,3.38
2022-11-17T16:41:36.154Z,1.20
2022-11-17T16:44:08.484Z,1.63
2022-11-17T16:46:36.528Z,1.80
2022-11-17T16:49:07.104Z,5.82
2022-11-17T16:51:36.730Z,5.10
2022-11-17T16:54:06.643Z,3.22
2022-11-17T16:56:35.529Z,4.45
2022-11-17T16:59:04.056Z,1.63
2022-11-17T17:01:34.737Z,4.72
2022-11-17T17:04:04.870Z,3.10
2022-11-17T17:06:33.069Z,6.25
2022-11-17T17:09:04.440Z,3.83
2022-11-17T17:11:33.307Z,2.10
2022-11-17T17:14:03.083Z,2.13
2022-11-17T17:16:32.642Z,5.00
2022-11-17T17:19:02.260Z,2.72
2022-11-17T17:21:31.177Z,6.72
2022-11-17T17:23:59.608Z,5.82
2022-11-17T17:26:30.988Z,6.97
2022-11-17T17:29:01.096Z,8.25
2022-11-17T17:31:33.759Z,8.93
2022-11-17T17:34:01.903Z,11.00
2022-11-17T17:36:30.460Z,13.32
2022-11-17T17:39:01.680Z,11.57
2022-11-17T17:41:32.462Z,9.18
2022-11-17T17:44:02.039Z,13.02
2022-11-17T17:46:31.625Z,13.27
2022-11-17T17:49:00.183Z,11.80
2022-11-17T17:51:29.754Z,12.48
2022-11-17T17:54:00.824Z,32.90
2022-11-17T17:56:31.400Z,32.15
2022-11-17T17:59:00.401Z,23.42
2022-11-17T18:01:29.910Z,19.05
2022-11-17T18:04:01.343Z,16.30
2022-11-17T18:06:29.429Z,23.75
2022-11-17T18:08:58.809Z,18.58
2022-11-17T18:11:27.252Z,15.00
2022-11-17T18:13:56.599Z,14.90
2022-11-17T18:16:26.710Z,19.25
2022-11-17T18:18:57.930Z,12.75
2022-11-17T18:21:26.592Z,12.82
2022-11-17T18:23:55.468Z,15.23
2022-11-17T18:26:25.077Z,11.88
2022-11-17T18:28:54.831Z,13.38
2022-11-17T18:31:26.476Z,16.35
2022-11-17T18:33:55.557Z,9.98
2022-11-17T18:36:23.972Z,45.83
2022-11-17T18:38:52.774Z,20.67
2022-11-17T18:41:22.347Z,20.73
2022-11-17T18:43:50.335Z,18.92
2022-11-17T18:46:19.895Z,12.60
2022-11-17T18:48:51.777Z,12.63
2022-11-17T18:51:21.915Z,15.90
2022-11-17T18:53:50.454Z,13.20
2022-11-17T18:56:21.906Z,11.13
2022-11-17T18:58:50.419Z,11.93
2022-11-17T19:01:20.032Z,11.27
2022-11-17T19:03:52.168Z,13.25
2022-11-17T19:06:21.463Z,12.82
2022-11-17T19:08:49.672Z,14.25
2022-11-17T19:11:19.611Z,17.20
2022-11-17T19:13:47.648Z,13.35
2022-11-17T19:16:17.468Z,11.10
2022-11-17T19:18:46.827Z,11.43
2022-11-17T19:21:17.440Z,12.13
2022-11-17T19:23:51.422Z,12.60
2022-11-17T19:26:21.395Z,12.60
2022-11-17T19:28:50.055Z,14.43
2022-11-17T19:31:19.220Z,16.63
2022-11-17T19:33:48.080Z,16.30
2022-11-17T19:36:19.402Z,16.00
2022-11-17T19:38:49.851Z,13.45
2022-11-17T19:41:20.215Z,13.27
2022-11-17T19:43:48.918Z,13.50
2022-11-17T19:46:17.959Z,18.10
2022-11-17T19:48:46.360Z,14.48
2022-11-17T19:51:18.528Z,13.75
2022-11-17T19:53:47.026Z,13.80
2022-11-17T19:56:15.368Z,16.40
2022-11-17T19:58:43.824Z,14.15
2022-11-17T20:01:13.934Z,16.27
2022-11-17T20:03:42.673Z,14.27
2022-11-17T20:06:11.532Z,17.85
2022-11-17T20:08:41.244Z,15.30
2022-11-17T20:11:12.300Z,16.75
2022-11-17T20:13:41.423Z,15.55
2022-11-17T20:16:13.998Z,15.60
2022-11-17T20:18:42.667Z,16.35
2022-11-17T20:21:14.055Z,17.58
2022-11-17T20:23:44.773Z,18.33
2022-11-17T20:26:15.032Z,17.02
2022-11-17T20:28:46.006Z,16.90
2022-11-17T20:31:16.594Z,16.17
2022-11-17T20:33:45.144Z,19.42
2022-11-17T20:36:15.349Z,17.90
2022-11-17T20:38:44.945Z,23.85
2022-11-17T20:41:13.027Z,19.60
2022-11-17T20:43:41.048Z,23.63
2022-11-17T20:46:10.243Z,22.77
2022-11-17T20:48:38.350Z,21.88
2022-11-17T20:51:08.180Z,18.67
2022-11-17T20:53:36.598Z,18.90
2022-11-17T20:56:08.121Z,27.15
2022-11-17T20:58:37.047Z,23.35
2022-11-17T21:01:09.441Z,20.63
2022-11-17T21:03:37.804Z,21.33
2022-11-17T21:06:06.360Z,20.38
2022-11-17T21:08:39.226Z,17.38
2022-11-17T21:11:10.552Z,16.02
2022-11-17T21:13:39.398Z,21.60
2022-11-17T21:16:10.599Z,20.98
2022-11-17T21:18:40.740Z,19.73
2022-11-17T21:21:09.659Z,19.58
2022-11-17T21:23:39.341Z,20.40
2022-11-17T21:26:12.925Z,17.98
2022-11-17T21:28:41.745Z,16.92
2022-11-17T21:31:13.243Z,19.38
2022-11-17T21:33:41.953Z,20.83
2022-11-17T21:36:11.985Z,19.73
2022-11-17T21:38:40.797Z,16.10
2022-11-17T21:41:12.706Z,19.88
2022-11-17T21:43:42.428Z,22.05
2022-11-17T21:46:13.196Z,19.85
2022-11-17T21:48:41.664Z,22.00
2022-11-17T21:51:16.182Z,21.48
2022-11-17T21:53:44.514Z,19.27
2022-11-17T21:56:14.479Z,21.20
2022-11-17T21:58:42.444Z,20.83
2022-11-17T22:01:12.164Z,39.42
2022-11-17T22:03:41.029Z,25.25
2022-11-17T22:06:11.003Z,28.35
2022-11-17T22:08:40.204Z,23.40
2022-11-17T22:11:09.662Z,34.17
2022-11-17T22:13:39.619Z,30.10
2022-11-17T22:16:10.943Z,25.25
2022-11-17T22:18:39.098Z,30.85
2022-11-17T22:21:10.144Z,21.60
2022-11-17T22:23:38.326Z,22.55
2022-11-17T22:26:07.295Z,46.85
2022-11-17T22:28:35.223Z,17.23
2022-11-17T22:31:07.962Z,17.05
2022-11-17T22:33:36.041Z,17.33
2022-11-17T22:36:04.144Z,16.15
2022-11-17T22:38:32.424Z,12.85
2022-11-17T22:41:01.403Z,19.70
2022-11-17T22:43:29.750Z,14.40
2022-11-17T22:45:58.210Z,18.08
2022-11-17T22:48:27.857Z,13.57
2022-11-17T22:50:58.832Z,15.27
2022-11-17T22:53:26.827Z,14.52
2022-11-17T22:55:55.350Z,16.08
2022-11-17T22:58:23.331Z,14.30
2022-11-17T23:00:52.963Z,18.95
2022-11-17T23:03:20.992Z,18.70
2022-11-17T23:05:50.281Z,20.80
2022-11-17T23:08:18.159Z,20.83
2022-11-17T23:10:46.128Z,19.27
2022-11-17T23:13:14.075Z,15.07
2022-11-17T23:15:41.962Z,14.00
2022-11-17T23:18:09.883Z,16.05
2022-11-17T23:20:38.300Z,14.88
2022-11-17T23:23:07.555Z,17.58
2022-11-17T23:25:35.498Z,19.58
2022-11-17T23:28:03.497Z,19.77
2022-11-17T23:30:31.495Z,19.77
2022-11-17T23:32:59.424Z,16.58
2022-11-17T23:35:27.798Z,20.30
2022-11-17T23:37:55.742Z,19.23
2022-11-17T23:40:25.029Z,22.25
2022-11-17T23:42:53.933Z,18.67
2022-11-17T23:45:21.821Z,16.90
2022-11-17T23:47:49.770Z,16.98
2022-11-17T23:50:18.488Z,18.48
2022-11-17T23:52:46.474Z,16.35
2022-11-17T23:55:14.431Z,17.75
2022-11-17T23:57:43.674Z,16.73
